sensor_id;sensor_type;location;lat;lon;timestamp;temperature;humidity
22035;DHT22;11181;51.002;4.356;2022-07-03T00:01:27;21.30;99.90
22035;DHT22;11181;51.002;4.356;2022-07-03T00:03:54;21.30;99.90
22035;DHT22;11181;51.002;4.356;2022-07-03T00:06:21;21.30;99.90
22035;DHT22;11181;51.002;4.356;2022-07-03T00:08:48;21.30;99.90
22035;DHT22;11181;51.002;4.356;2022-07-03T00:11:15;21.20;99.90
22035;DHT22;11181;51.002;4.356;2022-07-03T00:13:44;21.10;99.90
22035;DHT22;11181;51.002;4.356;2022-07-03T00:16:11;21.10;99.90
22035;DHT22;11181;51.002;4.356;2022-07-03T00:18:38;21.10;99.90
22035;DHT22;11181;51.002;4.356;2022-07-03T00:21:07;21.00;99.90
22035;DHT22;11181;51.002;4.356;2022-07-03T00:23:39;21.00;99.90
22035;DHT22;11181;51.002;4.356;2022-07-03T00:26:07;21.00;99.90
22035;DHT22;11181;51.002;4.356;2022-07-03T00:28:35;21.00;99.90
22035;DHT22;11181;51.002;4.356;2022-07-03T00:31:04;21.10;99.90
22035;DHT22;11181;51.002;4.356;2022-07-03T00:33:33;21.00;99.90
22035;DHT22;11181;51.002;4.356;2022-07-03T00:36:02;21.10;99.90
22035;DHT22;11181;51.002;4.356;2022-07-03T00:38:29;21.00;99.90
22035;DHT22;11181;51.002;4.356;2022-07-03T00:40:56;21.10;99.90
22035;DHT22;11181;51.002;4.356;2022-07-03T00:43:25;21.00;99.90
22035;DHT22;11181;51.002;4.356;2022-07-03T00:45:53;21.00;99.90
22035;DHT22;11181;51.002;4.356;2022-07-03T00:48:21;21.00;99.90
22035;DHT22;11181;51.002;4.356;2022-07-03T00:50:50;21.00;99.90
22035;DHT22;11181;51.002;4.356;2022-07-03T00:53:20;20.90;99.90
22035;DHT22;11181;51.002;4.356;2022-07-03T00:55:53;20.90;99.90
22035;DHT22;11181;51.002;4.356;2022-07-03T00:58:21;20.90;99.90
22035;DHT22;11181;51.002;4.356;2022-07-03T01:00:50;20.90;99.90
22035;DHT22;11181;51.002;4.356;2022-07-03T01:03:19;20.90;99.90
22035;DHT22;11181;51.002;4.356;2022-07-03T01:05:51;20.90;99.90
22035;DHT22;11181;51.002;4.356;2022-07-03T01:08:21;20.90;99.90
22035;DHT22;11181;51.002;4.356;2022-07-03T01:10:58;20.80;99.90
22035;DHT22;11181;51.002;4.356;2022-07-03T01:13:39;20.80;99.90
22035;DHT22;11181;51.002;4.356;2022-07-03T01:16:18;20.80;99.90
22035;DHT22;11181;51.002;4.356;2022-07-03T01:18:50;20.70;99.90
22035;DHT22;11181;51.002;4.356;2022-07-03T01:21:27;20.70;99.90
22035;DHT22;11181;51.002;4.356;2022-07-03T01:27:12;20.50;99.90
22035;DHT22;11181;51.002;4.356;2022-07-03T01:29:51;20.50;99.90
22035;DHT22;11181;51.002;4.356;2022-07-03T01:32:19;20.50;99.90
22035;DHT22;11181;51.002;4.356;2022-07-03T01:34:52;20.40;99.90
22035;DHT22;11181;51.002;4.356;2022-07-03T01:37:21;20.20;99.90
22035;DHT22;11181;51.002;4.356;2022-07-03T01:39:52;20.20;99.90
22035;DHT22;11181;51.002;4.356;2022-07-03T01:42:23;20.10;99.90
22035;DHT22;11181;51.002;4.356;2022-07-03T01:44:52;20.00;99.90
22035;DHT22;11181;51.002;4.356;2022-07-03T01:47:21;20.00;99.90
22035;DHT22;11181;51.002;4.356;2022-07-03T01:49:50;20.00;99.90
22035;DHT22;11181;51.002;4.356;2022-07-03T01:52:20;19.90;99.90
22035;DHT22;11181;51.002;4.356;2022-07-03T01:54:47;19.90;99.90
22035;DHT22;11181;51.002;4.356;2022-07-03T01:57:14;20.00;99.90
22035;DHT22;11181;51.002;4.356;2022-07-03T01:59:43;20.00;99.90
22035;DHT22;11181;51.002;4.356;2022-07-03T02:02:15;20.00;99.90
22035;DHT22;11181;51.002;4.356;2022-07-03T02:04:53;20.10;99.90
22035;DHT22;11181;51.002;4.356;2022-07-03T02:07:24;20.10;99.90
22035;DHT22;11181;51.002;4.356;2022-07-03T02:09:59;20.10;99.90
22035;DHT22;11181;51.002;4.356;2022-07-03T02:12:36;20.10;99.90
22035;DHT22;11181;51.002;4.356;2022-07-03T02:15:06;20.10;99.90
22035;DHT22;11181;51.002;4.356;2022-07-03T02:17:37;20.10;99.90
22035;DHT22;11181;51.002;4.356;2022-07-03T02:20:06;20.10;99.90
22035;DHT22;11181;51.002;4.356;2022-07-03T02:22:36;20.20;99.90
22035;DHT22;11181;51.002;4.356;2022-07-03T02:25:06;20.20;99.90
22035;DHT22;11181;51.002;4.356;2022-07-03T02:27:42;20.20;99.90
22035;DHT22;11181;51.002;4.356;2022-07-03T02:30:12;20.20;99.90
22035;DHT22;11181;51.002;4.356;2022-07-03T02:32:48;20.30;99.90
22035;DHT22;11181;51.002;4.356;2022-07-03T02:35:22;20.20;99.90
22035;DHT22;11181;51.002;4.356;2022-07-03T02:37:56;20.10;99.90
22035;DHT22;11181;51.002;4.356;2022-07-03T02:40:28;20.10;99.90
22035;DHT22;11181;51.002;4.356;2022-07-03T02:43:09;20.00;99.90
22035;DHT22;11181;51.002;4.356;2022-07-03T02:45:42;20.00;99.90
22035;DHT22;11181;51.002;4.356;2022-07-03T02:48:16;20.00;99.90
22035;DHT22;11181;51.002;4.356;2022-07-03T02:50:47;20.00;99.90
22035;DHT22;11181;51.002;4.356;2022-07-03T02:53:24;19.90;99.90
22035;DHT22;11181;51.002;4.356;2022-07-03T02:55:58;19.90;99.90
22035;DHT22;11181;51.002;4.356;2022-07-03T02:58:41;20.00;99.90
22035;DHT22;11181;51.002;4.356;2022-07-03T03:01:19;20.00;99.90
22035;DHT22;11181;51.002;4.356;2022-07-03T03:03:54;19.90;99.90
22035;DHT22;11181;51.002;4.356;2022-07-03T03:06:27;19.90;99.90
22035;DHT22;11181;51.002;4.356;2022-07-03T03:09:00;19.80;99.90
22035;DHT22;11181;51.002;4.356;2022-07-03T03:11:32;19.80;99.90
22035;DHT22;11181;51.002;4.356;2022-07-03T03:14:08;19.70;99.90
22035;DHT22;11181;51.002;4.356;2022-07-03T03:16:44;19.70;99.90
22035;DHT22;11181;51.002;4.356;2022-07-03T03:19:12;19.70;99.90
22035;DHT22;11181;51.002;4.356;2022-07-03T03:21:45;19.60;99.90
22035;DHT22;11181;51.002;4.356;2022-07-03T03:24:13;19.60;99.90
22035;DHT22;11181;51.002;4.356;2022-07-03T03:26:40;19.50;99.90
22035;DHT22;11181;51.002;4.356;2022-07-03T03:29:07;19.50;99.90
22035;DHT22;11181;51.002;4.356;2022-07-03T03:31:35;19.50;99.90
22035;DHT22;11181;51.002;4.356;2022-07-03T03:34:03;19.50;99.90
22035;DHT22;11181;51.002;4.356;2022-07-03T03:36:31;19.50;99.90
22035;DHT22;11181;51.002;4.356;2022-07-03T03:38:58;19.50;99.90
22035;DHT22;11181;51.002;4.356;2022-07-03T03:41:25;19.50;99.90
22035;DHT22;11181;51.002;4.356;2022-07-03T03:43:53;19.50;99.90
22035;DHT22;11181;51.002;4.356;2022-07-03T03:46:19;19.50;99.90
22035;DHT22;11181;51.002;4.356;2022-07-03T03:48:48;19.50;99.90
22035;DHT22;11181;51.002;4.356;2022-07-03T03:51:15;19.40;99.90
22035;DHT22;11181;51.002;4.356;2022-07-03T03:53:43;19.40;99.90
22035;DHT22;11181;51.002;4.356;2022-07-03T03:56:12;19.40;99.90
22035;DHT22;11181;51.002;4.356;2022-07-03T03:58:41;19.40;99.90
22035;DHT22;11181;51.002;4.356;2022-07-03T04:01:09;19.40;99.90
22035;DHT22;11181;51.002;4.356;2022-07-03T04:03:37;19.40;99.90
22035;DHT22;11181;51.002;4.356;2022-07-03T04:06:06;19.40;99.90
22035;DHT22;11181;51.002;4.356;2022-07-03T04:08:33;19.40;99.90
22035;DHT22;11181;51.002;4.356;2022-07-03T04:11:00;19.30;99.90
22035;DHT22;11181;51.002;4.356;2022-07-03T04:13:27;19.30;99.90
22035;DHT22;11181;51.002;4.356;2022-07-03T04:15:54;19.20;99.90
22035;DHT22;11181;51.002;4.356;2022-07-03T04:18:22;19.30;99.90
22035;DHT22;11181;51.002;4.356;2022-07-03T04:20:49;19.20;99.90
22035;DHT22;11181;51.002;4.356;2022-07-03T04:23:17;19.30;99.90
22035;DHT22;11181;51.002;4.356;2022-07-03T04:25:44;19.30;99.90
22035;DHT22;11181;51.002;4.356;2022-07-03T04:28:11;19.30;99.90
22035;DHT22;11181;51.002;4.356;2022-07-03T04:30:39;19.40;99.90
22035;DHT22;11181;51.002;4.356;2022-07-03T04:33:06;19.40;99.90
22035;DHT22;11181;51.002;4.356;2022-07-03T04:35:33;19.50;99.90
22035;DHT22;11181;51.002;4.356;2022-07-03T04:38:00;19.50;99.90
22035;DHT22;11181;51.002;4.356;2022-07-03T04:40:28;19.40;99.90
22035;DHT22;11181;51.002;4.356;2022-07-03T04:42:55;19.40;99.90
22035;DHT22;11181;51.002;4.356;2022-07-03T04:45:22;19.40;99.90
22035;DHT22;11181;51.002;4.356;2022-07-03T04:47:49;19.40;99.90
22035;DHT22;11181;51.002;4.356;2022-07-03T04:50:17;19.50;99.90
22035;DHT22;11181;51.002;4.356;2022-07-03T04:52:44;19.40;99.90
22035;DHT22;11181;51.002;4.356;2022-07-03T04:55:11;19.40;99.90
22035;DHT22;11181;51.002;4.356;2022-07-03T04:57:39;19.50;99.90
22035;DHT22;11181;51.002;4.356;2022-07-03T05:00:07;19.40;99.90
22035;DHT22;11181;51.002;4.356;2022-07-03T05:02:34;19.30;99.90
22035;DHT22;11181;51.002;4.356;2022-07-03T05:05:02;19.30;99.90
22035;DHT22;11181;51.002;4.356;2022-07-03T05:07:29;19.30;99.90
22035;DHT22;11181;51.002;4.356;2022-07-03T05:09:56;19.20;99.90
22035;DHT22;11181;51.002;4.356;2022-07-03T05:12:23;19.10;99.90
22035;DHT22;11181;51.002;4.356;2022-07-03T05:14:52;19.10;99.90
22035;DHT22;11181;51.002;4.356;2022-07-03T05:17:19;19.00;99.90
22035;DHT22;11181;51.002;4.356;2022-07-03T05:19:46;19.00;99.90
22035;DHT22;11181;51.002;4.356;2022-07-03T05:22:13;19.00;99.90
22035;DHT22;11181;51.002;4.356;2022-07-03T05:24:40;19.00;99.90
22035;DHT22;11181;51.002;4.356;2022-07-03T05:27:06;19.00;99.90
22035;DHT22;11181;51.002;4.356;2022-07-03T05:29:33;18.90;99.90
22035;DHT22;11181;51.002;4.356;2022-07-03T05:32:02;18.80;99.90
22035;DHT22;11181;51.002;4.356;2022-07-03T05:34:29;18.80;99.90
22035;DHT22;11181;51.002;4.356;2022-07-03T05:36:56;18.80;99.90
22035;DHT22;11181;51.002;4.356;2022-07-03T05:39:23;18.80;99.90
22035;DHT22;11181;51.002;4.356;2022-07-03T05:41:58;18.80;99.90
22035;DHT22;11181;51.002;4.356;2022-07-03T05:44:25;18.90;99.90
22035;DHT22;11181;51.002;4.356;2022-07-03T05:46:59;18.80;99.90
22035;DHT22;11181;51.002;4.356;2022-07-03T05:49:27;18.80;99.90
22035;DHT22;11181;51.002;4.356;2022-07-03T05:51:54;18.80;99.90
22035;DHT22;11181;51.002;4.356;2022-07-03T05:54:21;18.80;99.90
22035;DHT22;11181;51.002;4.356;2022-07-03T05:56:48;18.90;99.90
22035;DHT22;11181;51.002;4.356;2022-07-03T05:59:15;19.00;99.90
22035;DHT22;11181;51.002;4.356;2022-07-03T06:01:41;19.10;99.90
22035;DHT22;11181;51.002;4.356;2022-07-03T06:04:08;19.20;99.90
22035;DHT22;11181;51.002;4.356;2022-07-03T06:06:37;19.20;99.90
22035;DHT22;11181;51.002;4.356;2022-07-03T06:09:04;19.20;99.90
22035;DHT22;11181;51.002;4.356;2022-07-03T06:11:31;19.10;99.90
22035;DHT22;11181;51.002;4.356;2022-07-03T06:13:57;19.20;99.90
22035;DHT22;11181;51.002;4.356;2022-07-03T06:16:25;19.30;99.90
22035;DHT22;11181;51.002;4.356;2022-07-03T06:18:52;19.40;99.90
22035;DHT22;11181;51.002;4.356;2022-07-03T06:21:19;19.50;99.90
22035;DHT22;11181;51.002;4.356;2022-07-03T06:23:47;19.50;99.90
22035;DHT22;11181;51.002;4.356;2022-07-03T06:26:14;19.60;99.90
22035;DHT22;11181;51.002;4.356;2022-07-03T06:28:41;19.60;99.90
22035;DHT22;11181;51.002;4.356;2022-07-03T06:31:08;19.70;99.90
22035;DHT22;11181;51.002;4.356;2022-07-03T06:33:35;19.70;99.90
22035;DHT22;11181;51.002;4.356;2022-07-03T06:36:02;19.70;99.90
22035;DHT22;11181;51.002;4.356;2022-07-03T06:38:29;19.70;99.90
22035;DHT22;11181;51.002;4.356;2022-07-03T06:40:57;19.70;99.90
22035;DHT22;11181;51.002;4.356;2022-07-03T06:43:25;19.80;99.90
22035;DHT22;11181;51.002;4.356;2022-07-03T06:45:52;19.90;99.90
22035;DHT22;11181;51.002;4.356;2022-07-03T06:48:18;19.90;99.90
22035;DHT22;11181;51.002;4.356;2022-07-03T06:50:45;19.90;99.90
22035;DHT22;11181;51.002;4.356;2022-07-03T06:53:12;20.10;99.90
22035;DHT22;11181;51.002;4.356;2022-07-03T06:55:39;20.30;99.90
22035;DHT22;11181;51.002;4.356;2022-07-03T06:58:08;20.40;99.90
22035;DHT22;11181;51.002;4.356;2022-07-03T07:00:35;20.40;99.90
22035;DHT22;11181;51.002;4.356;2022-07-03T07:03:04;20.60;99.90
22035;DHT22;11181;51.002;4.356;2022-07-03T07:05:31;20.60;99.90
22035;DHT22;11181;51.002;4.356;2022-07-03T07:07:57;20.60;99.90
22035;DHT22;11181;51.002;4.356;2022-07-03T07:10:25;20.70;99.90
22035;DHT22;11181;51.002;4.356;2022-07-03T07:12:51;20.70;99.90
22035;DHT22;11181;51.002;4.356;2022-07-03T07:15:20;20.90;99.90
22035;DHT22;11181;51.002;4.356;2022-07-03T07:17:47;20.90;99.90
22035;DHT22;11181;51.002;4.356;2022-07-03T07:20:14;21.00;99.90
22035;DHT22;11181;51.002;4.356;2022-07-03T07:22:41;21.20;99.90
22035;DHT22;11181;51.002;4.356;2022-07-03T07:25:08;21.50;99.90
22035;DHT22;11181;51.002;4.356;2022-07-03T07:27:35;21.60;99.90
22035;DHT22;11181;51.002;4.356;2022-07-03T07:30:03;21.60;99.90
22035;DHT22;11181;51.002;4.356;2022-07-03T07:32:31;21.50;99.90
22035;DHT22;11181;51.002;4.356;2022-07-03T07:34:58;21.60;99.90
22035;DHT22;11181;51.002;4.356;2022-07-03T07:37:25;21.60;99.90
22035;DHT22;11181;51.002;4.356;2022-07-03T07:39:51;21.60;99.90
22035;DHT22;11181;51.002;4.356;2022-07-03T07:42:18;21.80;99.90
22035;DHT22;11181;51.002;4.356;2022-07-03T07:44:45;21.70;99.90
22035;DHT22;11181;51.002;4.356;2022-07-03T07:47:12;21.90;99.90
22035;DHT22;11181;51.002;4.356;2022-07-03T07:49:40;22.00;99.90
22035;DHT22;11181;51.002;4.356;2022-07-03T07:52:07;22.00;99.90
22035;DHT22;11181;51.002;4.356;2022-07-03T07:54:34;22.10;99.90
22035;DHT22;11181;51.002;4.356;2022-07-03T07:57:01;22.00;99.90
22035;DHT22;11181;51.002;4.356;2022-07-03T07:59:28;22.10;99.90
22035;DHT22;11181;51.002;4.356;2022-07-03T08:01:55;22.20;99.90
22035;DHT22;11181;51.002;4.356;2022-07-03T08:04:41;22.30;99.90
22035;DHT22;11181;51.002;4.356;2022-07-03T08:07:25;22.20;99.90
22035;DHT22;11181;51.002;4.356;2022-07-03T08:09:52;22.50;99.90
22035;DHT22;11181;51.002;4.356;2022-07-03T08:12:19;22.60;99.90
22035;DHT22;11181;51.002;4.356;2022-07-03T08:14:46;22.70;99.90
22035;DHT22;11181;51.002;4.356;2022-07-03T08:17:13;23.00;99.90
22035;DHT22;11181;51.002;4.356;2022-07-03T08:19:41;23.00;99.90
22035;DHT22;11181;51.002;4.356;2022-07-03T08:22:08;22.90;99.90
22035;DHT22;11181;51.002;4.356;2022-07-03T08:24:35;22.80;99.90
22035;DHT22;11181;51.002;4.356;2022-07-03T08:27:03;22.80;99.90
22035;DHT22;11181;51.002;4.356;2022-07-03T08:29:30;22.90;99.90
22035;DHT22;11181;51.002;4.356;2022-07-03T08:31:57;23.00;99.90
22035;DHT22;11181;51.002;4.356;2022-07-03T08:34:24;23.20;99.90
22035;DHT22;11181;51.002;4.356;2022-07-03T08:36:52;23.30;99.90
22035;DHT22;11181;51.002;4.356;2022-07-03T08:39:19;23.40;99.90
22035;DHT22;11181;51.002;4.356;2022-07-03T08:41:48;23.40;99.90
22035;DHT22;11181;51.002;4.356;2022-07-03T08:44:18;23.60;99.90
22035;DHT22;11181;51.002;4.356;2022-07-03T08:46:47;23.90;99.90
22035;DHT22;11181;51.002;4.356;2022-07-03T08:49:16;24.00;99.90
22035;DHT22;11181;51.002;4.356;2022-07-03T08:51:45;24.10;99.90
22035;DHT22;11181;51.002;4.356;2022-07-03T08:54:13;23.80;99.90
22035;DHT22;11181;51.002;4.356;2022-07-03T08:56:41;23.80;99.90
22035;DHT22;11181;51.002;4.356;2022-07-03T08:59:09;23.90;99.90
22035;DHT22;11181;51.002;4.356;2022-07-03T09:01:36;24.00;99.90
22035;DHT22;11181;51.002;4.356;2022-07-03T09:04:10;24.00;99.90
22035;DHT22;11181;51.002;4.356;2022-07-03T09:06:39;24.10;99.90
22035;DHT22;11181;51.002;4.356;2022-07-03T09:09:07;24.30;99.90
22035;DHT22;11181;51.002;4.356;2022-07-03T09:11:36;24.40;99.90
22035;DHT22;11181;51.002;4.356;2022-07-03T09:14:03;24.70;99.90
22035;DHT22;11181;51.002;4.356;2022-07-03T09:16:33;24.80;99.90
22035;DHT22;11181;51.002;4.356;2022-07-03T09:19:01;24.80;99.90
22035;DHT22;11181;51.002;4.356;2022-07-03T09:21:36;24.90;99.90
22035;DHT22;11181;51.002;4.356;2022-07-03T09:24:04;25.10;99.90
22035;DHT22;11181;51.002;4.356;2022-07-03T09:26:32;25.30;99.90
22035;DHT22;11181;51.002;4.356;2022-07-03T09:29:01;25.20;99.90
22035;DHT22;11181;51.002;4.356;2022-07-03T09:31:30;24.90;99.90
22035;DHT22;11181;51.002;4.356;2022-07-03T09:33:59;24.90;99.90
22035;DHT22;11181;51.002;4.356;2022-07-03T09:36:40;25.00;99.90
22035;DHT22;11181;51.002;4.356;2022-07-03T09:39:16;24.90;99.90
22035;DHT22;11181;51.002;4.356;2022-07-03T09:41:57;24.90;99.90
22035;DHT22;11181;51.002;4.356;2022-07-03T09:44:34;24.90;99.90
22035;DHT22;11181;51.002;4.356;2022-07-03T09:47:09;24.50;99.90
22035;DHT22;11181;51.002;4.356;2022-07-03T09:49:45;24.10;99.90
22035;DHT22;11181;51.002;4.356;2022-07-03T09:52:32;23.70;99.90
22035;DHT22;11181;51.002;4.356;2022-07-03T09:55:01;23.90;99.90
22035;DHT22;11181;51.002;4.356;2022-07-03T09:57:29;24.00;99.90
22035;DHT22;11181;51.002;4.356;2022-07-03T10:00:15;24.20;99.90
22035;DHT22;11181;51.002;4.356;2022-07-03T10:02:55;24.30;99.90
22035;DHT22;11181;51.002;4.356;2022-07-03T10:05:23;24.40;99.90
22035;DHT22;11181;51.002;4.356;2022-07-03T10:07:51;24.60;99.90
22035;DHT22;11181;51.002;4.356;2022-07-03T10:10:19;24.80;99.90
22035;DHT22;11181;51.002;4.356;2022-07-03T10:12:48;24.90;99.90
22035;DHT22;11181;51.002;4.356;2022-07-03T10:15:17;24.80;99.90
22035;DHT22;11181;51.002;4.356;2022-07-03T10:17:47;24.60;99.90
22035;DHT22;11181;51.002;4.356;2022-07-03T10:20:17;24.80;99.90
22035;DHT22;11181;51.002;4.356;2022-07-03T10:22:48;24.90;99.90
22035;DHT22;11181;51.002;4.356;2022-07-03T10:25:16;25.00;99.90
22035;DHT22;11181;51.002;4.356;2022-07-03T10:27:44;25.00;99.90
22035;DHT22;11181;51.002;4.356;2022-07-03T10:30:13;25.10;99.90
22035;DHT22;11181;51.002;4.356;2022-07-03T10:32:44;25.50;99.90
22035;DHT22;11181;51.002;4.356;2022-07-03T10:35:13;25.40;99.90
22035;DHT22;11181;51.002;4.356;2022-07-03T10:37:50;25.00;99.90
22035;DHT22;11181;51.002;4.356;2022-07-03T10:40:27;24.60;99.90
22035;DHT22;11181;51.002;4.356;2022-07-03T10:43:20;24.70;99.90
22035;DHT22;11181;51.002;4.356;2022-07-03T10:46:10;24.60;99.90
22035;DHT22;11181;51.002;4.356;2022-07-03T10:48:59;24.90;99.90
22035;DHT22;11181;51.002;4.356;2022-07-03T10:51:27;24.70;99.90
22035;DHT22;11181;51.002;4.356;2022-07-03T10:54:19;24.70;99.90
22035;DHT22;11181;51.002;4.356;2022-07-03T10:57:08;24.90;99.90
22035;DHT22;11181;51.002;4.356;2022-07-03T11:00:01;25.00;99.90
22035;DHT22;11181;51.002;4.356;2022-07-03T11:02:32;24.80;99.90
22035;DHT22;11181;51.002;4.356;2022-07-03T11:05:37;24.70;99.90
22035;DHT22;11181;51.002;4.356;2022-07-03T11:08:12;24.70;99.90
22035;DHT22;11181;51.002;4.356;2022-07-03T11:10:41;24.70;99.90
22035;DHT22;11181;51.002;4.356;2022-07-03T11:13:17;24.90;99.90
22035;DHT22;11181;51.002;4.356;2022-07-03T11:15:51;25.20;99.90
22035;DHT22;11181;51.002;4.356;2022-07-03T11:18:32;25.40;97.80
22035;DHT22;11181;51.002;4.356;2022-07-03T11:21:35;25.10;98.90
22035;DHT22;11181;51.002;4.356;2022-07-03T11:24:18;25.00;98.80
22035;DHT22;11181;51.002;4.356;2022-07-03T11:27:19;25.20;98.20
22035;DHT22;11181;51.002;4.356;2022-07-03T11:29:54;25.10;98.40
22035;DHT22;11181;51.002;4.356;2022-07-03T11:32:44;25.20;97.20
22035;DHT22;11181;51.002;4.356;2022-07-03T11:35:49;25.30;97.90
22035;DHT22;11181;51.002;4.356;2022-07-03T11:38:27;25.40;96.60
22035;DHT22;11181;51.002;4.356;2022-07-03T11:40:57;25.80;96.20
22035;DHT22;11181;51.002;4.356;2022-07-03T11:43:24;26.20;96.00
22035;DHT22;11181;51.002;4.356;2022-07-03T11:45:52;26.40;94.30
22035;DHT22;11181;51.002;4.356;2022-07-03T11:48:20;26.50;95.00
22035;DHT22;11181;51.002;4.356;2022-07-03T11:50:48;26.40;94.60
22035;DHT22;11181;51.002;4.356;2022-07-03T11:53:21;26.30;95.40
22035;DHT22;11181;51.002;4.356;2022-07-03T11:55:53;26.20;97.30
22035;DHT22;11181;51.002;4.356;2022-07-03T11:58:20;26.70;96.30
22035;DHT22;11181;51.002;4.356;2022-07-03T12:00:48;27.00;93.30
22035;DHT22;11181;51.002;4.356;2022-07-03T12:03:21;27.00;93.20
22035;DHT22;11181;51.002;4.356;2022-07-03T12:05:52;27.00;93.50
22035;DHT22;11181;51.002;4.356;2022-07-03T12:08:24;26.60;94.00
22035;DHT22;11181;51.002;4.356;2022-07-03T12:10:56;26.30;94.00
22035;DHT22;11181;51.002;4.356;2022-07-03T12:13:24;26.20;93.70
22035;DHT22;11181;51.002;4.356;2022-07-03T12:15:51;26.10;93.70
22035;DHT22;11181;51.002;4.356;2022-07-03T12:18:18;25.80;94.60
22035;DHT22;11181;51.002;4.356;2022-07-03T12:20:45;25.80;94.30
22035;DHT22;11181;51.002;4.356;2022-07-03T12:23:12;26.00;94.90
22035;DHT22;11181;51.002;4.356;2022-07-03T12:25:39;26.20;94.10
22035;DHT22;11181;51.002;4.356;2022-07-03T12:28:12;26.40;93.30
22035;DHT22;11181;51.002;4.356;2022-07-03T12:30:39;26.90;93.10
22035;DHT22;11181;51.002;4.356;2022-07-03T12:33:06;27.00;91.80
22035;DHT22;11181;51.002;4.356;2022-07-03T12:35:34;26.80;91.00
22035;DHT22;11181;51.002;4.356;2022-07-03T12:38:03;26.10;91.90
22035;DHT22;11181;51.002;4.356;2022-07-03T12:40:30;26.00;93.30
22035;DHT22;11181;51.002;4.356;2022-07-03T12:42:57;26.00;92.70
22035;DHT22;11181;51.002;4.356;2022-07-03T12:45:27;26.00;93.20
22035;DHT22;11181;51.002;4.356;2022-07-03T12:47:58;25.80;92.70
22035;DHT22;11181;51.002;4.356;2022-07-03T12:50:25;25.70;93.40
22035;DHT22;11181;51.002;4.356;2022-07-03T12:52:53;25.70;93.60
22035;DHT22;11181;51.002;4.356;2022-07-03T12:55:24;25.80;93.10
22035;DHT22;11181;51.002;4.356;2022-07-03T12:58:10;25.90;92.90
22035;DHT22;11181;51.002;4.356;2022-07-03T13:00:56;25.90;93.30
22035;DHT22;11181;51.002;4.356;2022-07-03T13:03:27;26.00;94.00
22035;DHT22;11181;51.002;4.356;2022-07-03T13:05:54;26.20;93.20
22035;DHT22;11181;51.002;4.356;2022-07-03T13:08:21;26.40;93.20
22035;DHT22;11181;51.002;4.356;2022-07-03T13:10:54;26.60;92.30
22035;DHT22;11181;51.002;4.356;2022-07-03T13:13:22;26.80;92.20
22035;DHT22;11181;51.002;4.356;2022-07-03T13:15:49;26.80;91.50
22035;DHT22;11181;51.002;4.356;2022-07-03T13:18:17;26.80;90.70
22035;DHT22;11181;51.002;4.356;2022-07-03T13:20:45;26.50;90.60
22035;DHT22;11181;51.002;4.356;2022-07-03T13:23:11;26.30;90.60
22035;DHT22;11181;51.002;4.356;2022-07-03T13:25:38;26.00;90.90
22035;DHT22;11181;51.002;4.356;2022-07-03T13:28:10;26.00;90.10
22035;DHT22;11181;51.002;4.356;2022-07-03T13:30:38;26.20;90.10
22035;DHT22;11181;51.002;4.356;2022-07-03T13:33:05;26.00;90.10
22035;DHT22;11181;51.002;4.356;2022-07-03T13:35:34;25.90;91.20
22035;DHT22;11181;51.002;4.356;2022-07-03T13:38:02;25.80;91.60
22035;DHT22;11181;51.002;4.356;2022-07-03T13:40:29;25.70;92.60
22035;DHT22;11181;51.002;4.356;2022-07-03T13:42:56;26.00;92.50
22035;DHT22;11181;51.002;4.356;2022-07-03T13:45:23;26.10;92.10
22035;DHT22;11181;51.002;4.356;2022-07-03T13:47:50;25.90;91.90
22035;DHT22;11181;51.002;4.356;2022-07-03T13:50:17;25.70;92.20
22035;DHT22;11181;51.002;4.356;2022-07-03T13:52:45;25.70;91.80
22035;DHT22;11181;51.002;4.356;2022-07-03T13:55:12;25.80;91.30
22035;DHT22;11181;51.002;4.356;2022-07-03T13:57:40;25.40;91.80
22035;DHT22;11181;51.002;4.356;2022-07-03T14:00:08;25.40;92.10
22035;DHT22;11181;51.002;4.356;2022-07-03T14:02:35;25.80;93.00
22035;DHT22;11181;51.002;4.356;2022-07-03T14:05:02;26.10;91.00
22035;DHT22;11181;51.002;4.356;2022-07-03T14:07:29;26.30;91.30
22035;DHT22;11181;51.002;4.356;2022-07-03T14:09:57;26.40;90.90
22035;DHT22;11181;51.002;4.356;2022-07-03T14:12:24;26.30;90.20
22035;DHT22;11181;51.002;4.356;2022-07-03T14:14:51;26.20;90.00
22035;DHT22;11181;51.002;4.356;2022-07-03T14:17:18;26.40;90.00
22035;DHT22;11181;51.002;4.356;2022-07-03T14:19:45;26.80;88.50
22035;DHT22;11181;51.002;4.356;2022-07-03T14:22:12;26.90;88.10
22035;DHT22;11181;51.002;4.356;2022-07-03T14:24:39;27.30;85.50
22035;DHT22;11181;51.002;4.356;2022-07-03T14:27:07;27.40;85.50
22035;DHT22;11181;51.002;4.356;2022-07-03T14:29:51;27.60;84.20
22035;DHT22;11181;51.002;4.356;2022-07-03T14:32:35;27.30;84.20
22035;DHT22;11181;51.002;4.356;2022-07-03T14:35:03;26.80;84.90
22035;DHT22;11181;51.002;4.356;2022-07-03T14:37:30;26.90;83.50
22035;DHT22;11181;51.002;4.356;2022-07-03T14:39:57;26.90;85.50
22035;DHT22;11181;51.002;4.356;2022-07-03T14:42:26;26.90;84.50
22035;DHT22;11181;51.002;4.356;2022-07-03T14:44:53;26.80;87.40
22035;DHT22;11181;51.002;4.356;2022-07-03T14:47:19;27.00;84.00
22035;DHT22;11181;51.002;4.356;2022-07-03T14:49:48;27.00;85.20
22035;DHT22;11181;51.002;4.356;2022-07-03T14:52:15;26.80;85.10
22035;DHT22;11181;51.002;4.356;2022-07-03T14:54:42;26.80;86.70
22035;DHT22;11181;51.002;4.356;2022-07-03T14:57:23;26.80;85.10
22035;DHT22;11181;51.002;4.356;2022-07-03T15:00:02;26.80;87.10
22035;DHT22;11181;51.002;4.356;2022-07-03T15:02:34;26.80;87.60
22035;DHT22;11181;51.002;4.356;2022-07-03T15:05:07;26.80;86.80
22035;DHT22;11181;51.002;4.356;2022-07-03T15:07:37;26.90;85.90
22035;DHT22;11181;51.002;4.356;2022-07-03T15:10:06;27.10;85.70
22035;DHT22;11181;51.002;4.356;2022-07-03T15:12:37;26.70;86.50
22035;DHT22;11181;51.002;4.356;2022-07-03T15:15:08;26.50;89.10
22035;DHT22;11181;51.002;4.356;2022-07-03T15:17:36;26.20;90.70
22035;DHT22;11181;51.002;4.356;2022-07-03T15:20:04;26.20;91.50
22035;DHT22;11181;51.002;4.356;2022-07-03T15:22:31;26.00;91.80
22035;DHT22;11181;51.002;4.356;2022-07-03T15:24:59;25.50;91.10
22035;DHT22;11181;51.002;4.356;2022-07-03T15:27:27;25.10;92.10
22035;DHT22;11181;51.002;4.356;2022-07-03T15:29:55;25.30;92.30
22035;DHT22;11181;51.002;4.356;2022-07-03T15:32:24;25.40;92.60
22035;DHT22;11181;51.002;4.356;2022-07-03T15:34:51;25.40;92.50
22035;DHT22;11181;51.002;4.356;2022-07-03T15:37:28;25.30;92.90
22035;DHT22;11181;51.002;4.356;2022-07-03T15:40:01;25.70;93.30
22035;DHT22;11181;51.002;4.356;2022-07-03T15:42:56;25.90;92.70
22035;DHT22;11181;51.002;4.356;2022-07-03T15:45:35;25.30;92.10
22035;DHT22;11181;51.002;4.356;2022-07-03T15:48:10;25.00;92.90
22035;DHT22;11181;51.002;4.356;2022-07-03T15:50:49;24.80;93.50
22035;DHT22;11181;51.002;4.356;2022-07-03T15:53:19;24.70;93.70